createdAt,value
2018-01-20T00:00:55.309Z,0
2018-01-20T00:01:56.688Z,0
2018-01-20T00:02:58.067Z,0
2018-01-20T00:03:59.452Z,0
2018-01-20T00:05:00.834Z,0
2018-01-20T00:06:02.213Z,0
2018-01-20T00:07:03.592Z,0
2018-01-20T00:08:04.966Z,0
2018-01-20T00:09:06.345Z,0
2018-01-20T00:10:07.728Z,0
2018-01-20T00:11:09.107Z,0
2018-01-20T00:12:10.491Z,0
2018-01-20T00:13:11.868Z,0
2018-01-20T00:14:13.255Z,0
2018-01-20T00:15:14.676Z,0
2018-01-20T00:16:16.065Z,0
2018-01-20T00:17:17.435Z,0
2018-01-20T00:18:18.815Z,0
2018-01-20T00:19:20.195Z,0
2018-01-20T00:20:21.572Z,0
2018-01-20T00:21:22.949Z,0
2018-01-20T00:22:24.328Z,0
2018-01-20T00:23:25.705Z,0
2018-01-20T00:24:27.087Z,0
2018-01-20T00:25:28.466Z,0
2018-01-20T00:26:29.847Z,0
2018-01-20T00:27:31.228Z,0
2018-01-20T00:28:32.605Z,0
2018-01-20T00:29:33.985Z,0
2018-01-20T00:30:35.365Z,0
2018-01-20T00:31:36.742Z,0
2018-01-20T00:32:38.122Z,0
2018-01-20T00:33:39.503Z,0
2018-01-20T00:34:40.881Z,0
2018-01-20T00:35:42.259Z,0
2018-01-20T00:36:43.643Z,0
2018-01-20T00:37:45.019Z,0
2018-01-20T00:38:46.400Z,0
2018-01-20T00:39:47.779Z,0
2018-01-20T00:40:49.161Z,0
2018-01-20T00:41:50.542Z,0
2018-01-20T00:42:51.918Z,0
2018-01-20T00:43:53.301Z,0
2018-01-20T00:44:54.676Z,0
2018-01-20T00:45:56.057Z,0
2018-01-20T00:46:57.435Z,0
2018-01-20T00:47:58.821Z,0
2018-01-20T00:49:00.199Z,0
2018-01-20T00:50:01.577Z,0
2018-01-20T00:51:02.959Z,0
2018-01-20T00:52:04.334Z,0
2018-01-20T00:53:05.716Z,0
2018-01-20T00:54:07.093Z,0
2018-01-20T00:55:08.475Z,0
2018-01-20T00:56:09.852Z,0
2018-01-20T00:57:11.229Z,0
2018-01-20T00:58:12.609Z,0
2018-01-20T00:59:13.988Z,0
2018-01-20T01:00:15.369Z,0
2018-01-20T01:01:16.747Z,0
2018-01-20T01:02:18.128Z,0
2018-01-20T01:03:19.506Z,0
2018-01-20T01:04:20.882Z,0
2018-01-20T01:05:22.259Z,0
2018-01-20T01:06:23.689Z,0
2018-01-20T01:07:25.070Z,0
2018-01-20T01:08:26.465Z,0
2018-01-20T01:09:27.844Z,0
2018-01-20T01:10:29.223Z,0
2018-01-20T01:11:30.599Z,0
2018-01-20T01:12:31.980Z,0
2018-01-20T01:13:33.359Z,0
2018-01-20T01:14:34.738Z,0
2018-01-20T01:15:36.117Z,0
2018-01-20T01:16:37.499Z,0
2018-01-20T01:17:38.879Z,0
2018-01-20T01:18:40.257Z,0
2018-01-20T01:19:41.638Z,0
2018-01-20T01:20:43.020Z,0
2018-01-20T01:21:44.405Z,0
2018-01-20T01:22:45.787Z,0
2018-01-20T01:23:47.166Z,0
2018-01-20T01:24:48.544Z,0
2018-01-20T01:25:49.921Z,0
2018-01-20T01:26:51.302Z,0
2018-01-20T01:27:52.683Z,0
2018-01-20T01:28:54.062Z,0
2018-01-20T01:29:55.446Z,0
2018-01-20T01:30:56.825Z,0
2018-01-20T01:31:58.202Z,0
2018-01-20T01:32:59.580Z,0
2018-01-20T01:34:00.959Z,0
2018-01-20T01:35:02.340Z,0
2018-01-20T01:36:03.724Z,0
2018-01-20T01:37:05.103Z,0
2018-01-20T01:38:06.481Z,0
2018-01-20T01:39:07.859Z,0
2018-01-20T01:40:09.239Z,0
2018-01-20T01:41:10.617Z,0
2018-01-20T01:42:11.997Z,0
2018-01-20T01:43:13.381Z,0
2018-01-20T01:44:14.758Z,0
2018-01-20T01:45:16.137Z,0
2018-01-20T01:46:17.516Z,0
2018-01-20T01:47:18.896Z,0
2018-01-20T01:48:20.275Z,0
2018-01-20T01:49:21.653Z,0
2018-01-20T01:50:23.034Z,0
2018-01-20T01:51:24.413Z,0
2018-01-20T01:52:25.798Z,0
2018-01-20T01:53:27.172Z,0
2018-01-20T01:54:28.548Z,0
2018-01-20T01:55:29.927Z,0
2018-01-20T01:56:31.306Z,0
2018-01-20T01:57:32.729Z,0
2018-01-20T01:58:34.120Z,0
2018-01-20T01:59:35.502Z,0
2018-01-20T02:00:36.878Z,0
2018-01-20T02:01:38.256Z,0
2018-01-20T02:02:39.634Z,0
2018-01-20T02:03:41.017Z,0
2018-01-20T02:04:42.396Z,0
2018-01-20T02:05:43.778Z,0
2018-01-20T02:06:45.160Z,0
2018-01-20T02:07:46.540Z,0
2018-01-20T02:08:47.920Z,0
2018-01-20T02:09:49.301Z,0
2018-01-20T02:10:50.683Z,0
2018-01-20T02:11:52.065Z,0
2018-01-20T02:12:53.448Z,0
2018-01-20T02:13:54.829Z,0
2018-01-20T02:14:56.207Z,0
2018-01-20T02:15:57.589Z,0
2018-01-20T02:16:58.968Z,0
2018-01-20T02:18:00.348Z,0
2018-01-20T02:19:01.732Z,0
2018-01-20T02:20:03.111Z,0
2018-01-20T02:21:04.493Z,0
2018-01-20T02:22:05.870Z,0
2018-01-20T02:23:07.249Z,0
2018-01-20T02:24:08.626Z,0
2018-01-20T02:25:10.019Z,0
2018-01-20T02:26:11.400Z,0
2018-01-20T02:27:12.779Z,0
2018-01-20T02:28:14.160Z,0
2018-01-20T02:29:15.541Z,0
2018-01-20T02:30:16.919Z,0
2018-01-20T02:31:18.299Z,0
2018-01-20T02:32:19.680Z,0
2018-01-20T02:33:21.061Z,0
2018-01-20T02:34:22.443Z,0
2018-01-20T02:35:23.834Z,0
2018-01-20T02:36:25.207Z,0
2018-01-20T02:37:26.582Z,0
2018-01-20T02:38:27.963Z,0
2018-01-20T02:39:29.343Z,0
2018-01-20T02:40:30.724Z,0
2018-01-20T02:41:32.106Z,0
2018-01-20T02:42:33.492Z,0
2018-01-20T02:43:34.865Z,0
2018-01-20T02:44:36.245Z,0
2018-01-20T02:45:37.622Z,0
2018-01-20T02:46:39.001Z,0
2018-01-20T02:47:40.380Z,0
2018-01-20T02:48:41.813Z,0
2018-01-20T02:49:43.204Z,0
2018-01-20T02:50:44.581Z,0
2018-01-20T02:51:45.964Z,0
2018-01-20T02:52:47.342Z,0
2018-01-20T02:53:48.720Z,0
2018-01-20T02:54:50.099Z,0
2018-01-20T02:55:51.475Z,0
2018-01-20T02:56:52.854Z,0
2018-01-20T02:57:54.237Z,0
2018-01-20T02:58:55.622Z,0
2018-01-20T02:59:56.995Z,0
2018-01-20T03:00:58.374Z,0
2018-01-20T03:01:59.755Z,0
2018-01-20T03:03:01.134Z,0
2018-01-20T03:04:02.516Z,0
2018-01-20T03:05:03.897Z,0
2018-01-20T03:06:05.275Z,0
2018-01-20T03:07:06.653Z,0
2018-01-20T03:08:08.032Z,0
2018-01-20T03:09:09.412Z,0
2018-01-20T03:10:10.792Z,0
2018-01-20T03:11:12.174Z,0
2018-01-20T03:12:13.550Z,0
2018-01-20T03:13:14.929Z,0
2018-01-20T03:14:16.310Z,0
2018-01-20T03:15:17.690Z,0
2018-01-20T03:16:19.074Z,0
2018-01-20T03:17:20.451Z,0
2018-01-20T03:18:21.835Z,0
2018-01-20T03:19:23.216Z,0
2018-01-20T03:20:24.586Z,0
2018-01-20T03:21:25.968Z,0
2018-01-20T03:22:27.347Z,0
2018-01-20T03:23:28.724Z,0
2018-01-20T03:24:30.106Z,0
2018-01-20T03:25:31.490Z,0
2018-01-20T03:26:32.863Z,0
2018-01-20T03:27:34.239Z,0
2018-01-20T03:28:35.620Z,0
2018-01-20T03:29:37.000Z,0
2018-01-20T03:30:38.383Z,0
2018-01-20T03:31:39.765Z,0
2018-01-20T03:32:41.143Z,0
2018-01-20T03:33:42.521Z,0
2018-01-20T03:34:43.899Z,0
2018-01-20T03:35:45.277Z,0
2018-01-20T03:36:46.665Z,0
2018-01-20T03:37:48.045Z,0
2018-01-20T03:38:49.428Z,0
2018-01-20T03:39:50.819Z,0
2018-01-20T03:40:52.235Z,0
2018-01-20T03:41:53.609Z,0
2018-01-20T03:42:54.987Z,0
2018-01-20T03:43:56.368Z,0
2018-01-20T03:44:57.747Z,0
2018-01-20T03:45:59.128Z,0
2018-01-20T03:47:00.511Z,0
2018-01-20T03:48:01.886Z,0
2018-01-20T03:49:03.264Z,0
2018-01-20T03:50:04.643Z,0
2018-01-20T03:51:06.026Z,0
2018-01-20T03:52:07.407Z,0
2018-01-20T03:53:08.788Z,0
2018-01-20T03:54:10.168Z,0
2018-01-20T03:55:11.549Z,0
2018-01-20T03:56:12.926Z,0
2018-01-20T03:57:14.308Z,0
2018-01-20T03:58:15.694Z,0
2018-01-20T03:59:17.075Z,0
2018-01-20T04:00:18.454Z,0
2018-01-20T04:01:19.837Z,0
2018-01-20T04:02:21.215Z,0
2018-01-20T04:03:22.594Z,0
2018-01-20T04:04:23.974Z,0
2018-01-20T04:05:25.352Z,0
2018-01-20T04:06:26.730Z,0
2018-01-20T04:07:28.110Z,0
2018-01-20T04:08:29.488Z,0
2018-01-20T04:09:30.867Z,0
2018-01-20T04:10:32.247Z,0
2018-01-20T04:11:33.628Z,0
2018-01-20T04:12:35.008Z,0
2018-01-20T04:13:36.387Z,0
2018-01-20T04:14:37.769Z,0
2018-01-20T04:15:39.148Z,0
2018-01-20T04:16:40.529Z,0
2018-01-20T04:17:41.910Z,0
2018-01-20T04:18:43.286Z,0
2018-01-20T04:19:44.668Z,0
2018-01-20T04:20:46.048Z,0
2018-01-20T04:21:47.429Z,0
2018-01-20T04:22:48.813Z,0
2018-01-20T04:23:50.192Z,0
2018-01-20T04:24:51.573Z,0
2018-01-20T04:25:52.950Z,0
2018-01-20T04:26:54.328Z,0
2018-01-20T04:27:55.707Z,0
2018-01-20T04:28:57.092Z,0
2018-01-20T04:29:58.468Z,0
2018-01-20T04:30:59.918Z,0
2018-01-20T04:32:01.295Z,0
2018-01-20T04:33:02.677Z,0
2018-01-20T04:34:04.052Z,0
2018-01-20T04:35:05.434Z,0
2018-01-20T04:36:06.813Z,0
2018-01-20T04:37:08.198Z,0
2018-01-20T04:38:09.577Z,0
2018-01-20T04:39:10.955Z,0
2018-01-20T04:40:12.334Z,0
2018-01-20T04:41:13.712Z,0
2018-01-20T04:42:15.093Z,0
2018-01-20T04:43:16.475Z,0
2018-01-20T04:44:17.857Z,0
2018-01-20T04:45:19.236Z,0
2018-01-20T04:46:20.615Z,0
2018-01-20T04:47:21.996Z,0
2018-01-20T04:48:23.372Z,0
2018-01-20T04:49:24.751Z,0
2018-01-20T04:50:26.131Z,0
2018-01-20T04:51:27.513Z,0
2018-01-20T04:52:28.892Z,0
2018-01-20T04:53:30.271Z,0
2018-01-20T04:54:31.649Z,0
2018-01-20T04:55:33.028Z,0
2018-01-20T04:56:34.409Z,0
2018-01-20T04:57:35.789Z,0
2018-01-20T04:58:37.171Z,0
2018-01-20T04:59:38.550Z,0
2018-01-20T05:00:39.929Z,0
2018-01-20T05:01:41.309Z,0
2018-01-20T05:02:42.687Z,0
2018-01-20T05:03:44.067Z,0
2018-01-20T05:04:45.446Z,0
2018-01-20T05:05:46.825Z,0
2018-01-20T05:06:48.206Z,0
2018-01-20T05:07:49.587Z,0
2018-01-20T05:08:50.964Z,0
2018-01-20T05:09:52.420Z,0
2018-01-20T05:10:53.796Z,0
2018-01-20T05:11:55.178Z,0
2018-01-20T05:12:56.562Z,0
2018-01-20T05:13:57.939Z,0
2018-01-20T05:14:59.318Z,0
2018-01-20T05:16:00.700Z,0
2018-01-20T05:17:02.075Z,0
2018-01-20T05:18:03.455Z,0
2018-01-20T05:19:04.835Z,0
2018-01-20T05:20:06.221Z,0
2018-01-20T05:21:07.600Z,0
2018-01-20T05:22:08.978Z,0
2018-01-20T05:23:10.391Z,0
2018-01-20T05:24:11.791Z,0
2018-01-20T05:25:13.172Z,0
2018-01-20T05:26:14.551Z,0
2018-01-20T05:27:15.930Z,0
2018-01-20T05:28:17.309Z,0
2018-01-20T05:29:18.686Z,0
2018-01-20T05:30:20.066Z,0
2018-01-20T05:31:21.446Z,0
2018-01-20T05:32:22.829Z,0
2018-01-20T05:33:24.209Z,0
2018-01-20T05:34:25.589Z,0
2018-01-20T05:35:26.974Z,0
2018-01-20T05:36:28.345Z,0
2018-01-20T05:37:29.728Z,0
2018-01-20T05:38:31.106Z,0
2018-01-20T05:39:32.489Z,0
2018-01-20T05:40:33.867Z,0
2018-01-20T05:41:35.331Z,0
2018-01-20T05:42:37.064Z,0
2018-01-20T05:43:38.449Z,0
2018-01-20T05:44:39.898Z,0
2018-01-20T05:45:41.276Z,0
2018-01-20T05:46:42.662Z,0
2018-01-20T05:47:44.042Z,0
2018-01-20T05:48:45.450Z,0
2018-01-20T05:49:46.800Z,0
2018-01-20T05:50:48.179Z,0
2018-01-20T05:51:49.559Z,0
2018-01-20T05:52:50.941Z,0
2018-01-20T05:53:52.321Z,0
2018-01-20T05:54:53.701Z,0
2018-01-20T05:55:55.082Z,0
2018-01-20T05:56:56.457Z,0
2018-01-20T05:57:57.835Z,0
2018-01-20T05:58:59.215Z,0
2018-01-20T06:00:00.594Z,0
2018-01-20T06:01:01.976Z,0
2018-01-20T06:02:03.357Z,0
2018-01-20T06:03:04.739Z,0
2018-01-20T06:04:06.120Z,0
2018-01-20T06:05:07.499Z,0
2018-01-20T06:06:08.878Z,0
2018-01-20T06:07:10.259Z,0
2018-01-20T06:08:11.640Z,0
2018-01-20T06:09:13.020Z,0
2018-01-20T06:10:14.401Z,0
2018-01-20T06:11:15.963Z,0
2018-01-20T06:12:17.333Z,0
2018-01-20T06:13:18.712Z,0
2018-01-20T06:14:20.097Z,0
2018-01-20T06:15:21.481Z,0
2018-01-20T06:16:22.859Z,0
2018-01-20T06:17:24.234Z,0
2018-01-20T06:18:25.758Z,0
2018-01-20T06:19:27.136Z,0
2018-01-20T06:20:28.516Z,0
2018-01-20T06:21:29.892Z,0
2018-01-20T06:22:31.271Z,0
2018-01-20T06:23:32.653Z,0
2018-01-20T06:24:34.034Z,0
2018-01-20T06:25:35.413Z,0
2018-01-20T06:26:36.790Z,0
2018-01-20T06:27:38.172Z,0
2018-01-20T06:28:39.551Z,0
2018-01-20T06:29:40.931Z,0
2018-01-20T06:30:42.311Z,0
2018-01-20T06:31:43.695Z,0
2018-01-20T06:32:45.076Z,0
2018-01-20T06:33:46.455Z,0
2018-01-20T06:34:47.834Z,0
2018-01-20T06:35:49.246Z,0
2018-01-20T06:36:50.625Z,0
2018-01-20T06:37:52.007Z,0
2018-01-20T06:38:53.390Z,0
2018-01-20T06:39:54.771Z,0
2018-01-20T06:40:56.155Z,0
2018-01-20T06:41:57.532Z,0
2018-01-20T06:42:58.913Z,0
2018-01-20T06:44:00.293Z,0
2018-01-20T06:45:01.670Z,0
2018-01-20T06:46:03.056Z,0
2018-01-20T06:47:04.436Z,0
2018-01-20T06:48:05.814Z,4
2018-01-20T06:49:07.196Z,0
2018-01-20T06:50:08.574Z,0
2018-01-20T06:51:09.956Z,0
2018-01-20T06:52:11.335Z,0
2018-01-20T06:53:12.719Z,4
2018-01-20T06:54:14.097Z,4
2018-01-20T06:55:15.475Z,4
2018-01-20T06:56:16.859Z,4
2018-01-20T06:57:18.247Z,0
2018-01-20T06:58:19.619Z,0
2018-01-20T06:59:20.999Z,4
2018-01-20T07:00:22.382Z,4
2018-01-20T07:01:23.763Z,4
2018-01-20T07:02:25.140Z,4
2018-01-20T07:03:26.518Z,8
2018-01-20T07:04:27.897Z,8
2018-01-20T07:05:29.278Z,4
2018-01-20T07:06:30.658Z,8
2018-01-20T07:07:32.041Z,8
2018-01-20T07:08:33.421Z,8
2018-01-20T07:09:34.798Z,12
2018-01-20T07:10:36.179Z,12
2018-01-20T07:11:37.560Z,12
2018-01-20T07:12:38.943Z,16
2018-01-20T07:13:40.323Z,16
2018-01-20T07:14:41.726Z,24
2018-01-20T07:15:43.121Z,24
2018-01-20T07:16:44.513Z,28
2018-01-20T07:17:45.894Z,32
2018-01-20T07:18:47.279Z,36
2018-01-20T07:19:48.658Z,40
2018-01-20T07:20:50.041Z,40
2018-01-20T07:21:51.421Z,48
2018-01-20T07:22:52.801Z,56
2018-01-20T07:23:54.181Z,60
2018-01-20T07:24:55.564Z,64
2018-01-20T07:25:56.943Z,64
2018-01-20T07:26:58.327Z,68
2018-01-20T07:27:59.707Z,76
2018-01-20T07:29:01.089Z,80
2018-01-20T07:30:02.469Z,84
2018-01-20T07:31:03.850Z,88
2018-01-20T07:32:05.234Z,92
2018-01-20T07:33:06.606Z,100
2018-01-20T07:34:07.988Z,104
2018-01-20T07:35:09.371Z,108
2018-01-20T07:36:10.756Z,108
2018-01-20T07:37:12.138Z,116
2018-01-20T07:38:13.709Z,120
2018-01-20T07:39:15.104Z,124
2018-01-20T07:40:16.488Z,140
2018-01-20T07:41:17.875Z,148
2018-01-20T07:42:19.258Z,164
2018-01-20T07:43:22.269Z,168
2018-01-20T07:44:24.696Z,172
2018-01-20T07:45:25.919Z,180
2018-01-20T07:46:27.325Z,188
2018-01-20T07:47:28.708Z,196
2018-01-20T07:48:30.094Z,200
2018-01-20T07:49:31.500Z,212
2018-01-20T07:50:32.886Z,224
2018-01-20T07:51:34.269Z,248
2018-01-20T07:52:35.652Z,272
2018-01-20T07:53:37.038Z,296
2018-01-20T07:54:38.420Z,308
2018-01-20T07:55:39.806Z,340
2018-01-20T07:56:41.186Z,344
2018-01-20T07:57:42.573Z,356
2018-01-20T07:58:43.955Z,356
2018-01-20T07:59:45.338Z,368
2018-01-20T08:00:46.733Z,376
2018-01-20T08:01:48.105Z,368
2018-01-20T08:02:49.541Z,348
2018-01-20T08:03:50.999Z,340
2018-01-20T08:04:52.389Z,332
2018-01-20T08:05:53.769Z,332
2018-01-20T08:06:55.150Z,340
2018-01-20T08:07:56.535Z,364
2018-01-20T08:08:57.919Z,396
2018-01-20T08:09:59.300Z,448
2018-01-20T08:11:00.685Z,500
2018-01-20T08:12:02.069Z,512
2018-01-20T08:13:03.454Z,516
2018-01-20T08:14:04.836Z,520
2018-01-20T08:15:06.216Z,508
2018-01-20T08:16:07.601Z,480
2018-01-20T08:17:08.985Z,460
2018-01-20T08:18:10.368Z,456
2018-01-20T08:19:11.776Z,456
2018-01-20T08:20:13.160Z,468
2018-01-20T08:21:14.546Z,476
2018-01-20T08:22:16.384Z,488
2018-01-20T08:23:17.777Z,512
2018-01-20T08:24:19.258Z,536
2018-01-20T08:25:20.628Z,576
2018-01-20T08:26:22.014Z,616
2018-01-20T08:27:23.452Z,656
2018-01-20T08:28:24.834Z,696
2018-01-20T08:29:26.217Z,732
2018-01-20T08:30:27.601Z,784
2018-01-20T08:31:29.304Z,840
2018-01-20T08:32:30.706Z,916
2018-01-20T08:33:32.090Z,1008
2018-01-20T08:34:33.473Z,1080
2018-01-20T08:35:34.857Z,1124
2018-01-20T08:36:36.242Z,1128
2018-01-20T08:37:37.628Z,1116
2018-01-20T08:38:39.017Z,1052
2018-01-20T08:39:40.401Z,984
2018-01-20T08:40:41.785Z,960
2018-01-20T08:41:43.168Z,984
2018-01-20T08:42:44.551Z,1004
2018-01-20T08:43:45.932Z,964
2018-01-20T08:44:47.315Z,892
2018-01-20T08:45:48.704Z,848
2018-01-20T08:46:50.853Z,784
2018-01-20T08:47:52.238Z,752
2018-01-20T08:48:53.619Z,724
2018-01-20T08:49:55.009Z,708
2018-01-20T08:50:56.388Z,712
2018-01-20T08:51:57.842Z,728
2018-01-20T08:52:59.228Z,752
2018-01-20T08:54:00.612Z,764
2018-01-20T08:55:02.002Z,768
2018-01-20T08:56:03.384Z,784
2018-01-20T08:57:04.771Z,796
2018-01-20T08:58:06.158Z,812
2018-01-20T08:59:07.743Z,828
2018-01-20T09:00:09.114Z,864
2018-01-20T09:01:10.498Z,884
2018-01-20T09:02:11.886Z,892
2018-01-20T09:03:13.267Z,900
2018-01-20T09:04:14.649Z,912
2018-01-20T09:05:16.035Z,932
2018-01-20T09:06:17.417Z,972
2018-01-20T09:07:18.804Z,1016
2018-01-20T09:08:20.191Z,1068
2018-01-20T09:09:21.582Z,1132
2018-01-20T09:10:22.964Z,1196
2018-01-20T09:11:24.351Z,1228
2018-01-20T09:12:25.735Z,1220
2018-01-20T09:13:27.124Z,1184
2018-01-20T09:14:28.506Z,1180
2018-01-20T09:15:29.892Z,1184
2018-01-20T09:16:31.281Z,1224
2018-01-20T09:17:32.665Z,1244
2018-01-20T09:18:34.048Z,1248
2018-01-20T09:19:35.430Z,1196
2018-01-20T09:20:36.816Z,1120
2018-01-20T09:21:38.201Z,1056
2018-01-20T09:22:39.588Z,1044
2018-01-20T09:23:40.975Z,1088
2018-01-20T09:24:42.359Z,1192
2018-01-20T09:25:43.743Z,1344
2018-01-20T09:26:45.126Z,1472
2018-01-20T09:27:46.512Z,1508
2018-01-20T09:28:47.902Z,1444
2018-01-20T09:29:49.450Z,1368
2018-01-20T09:30:50.837Z,1280
2018-01-20T09:31:52.220Z,1200
2018-01-20T09:32:53.605Z,1124
2018-01-20T09:33:54.993Z,1012
2018-01-20T09:34:56.378Z,896
2018-01-20T09:35:57.762Z,844
2018-01-20T09:36:59.146Z,824
2018-01-20T09:38:00.534Z,824
2018-01-20T09:39:01.917Z,868
2018-01-20T09:40:03.298Z,916
2018-01-20T09:41:04.689Z,932
2018-01-20T09:42:06.084Z,940
2018-01-20T09:43:07.464Z,932
2018-01-20T09:44:08.849Z,904
2018-01-20T09:45:10.239Z,864
2018-01-20T09:46:11.619Z,808
2018-01-20T09:47:13.000Z,772
2018-01-20T09:48:14.383Z,756
2018-01-20T09:49:15.770Z,724
2018-01-20T09:50:17.156Z,708
2018-01-20T09:51:18.539Z,748
2018-01-20T09:52:19.927Z,772
2018-01-20T09:53:21.310Z,800
2018-01-20T09:54:22.694Z,816
2018-01-20T09:55:24.077Z,836
2018-01-20T09:56:25.461Z,812
2018-01-20T09:57:26.846Z,792
2018-01-20T09:58:28.231Z,760
2018-01-20T09:59:29.621Z,720
2018-01-20T10:00:31.002Z,712
2018-01-20T10:01:32.385Z,736
2018-01-20T10:02:33.767Z,756
2018-01-20T10:03:35.150Z,784
2018-01-20T10:04:36.536Z,796
2018-01-20T10:05:37.920Z,764
2018-01-20T10:06:39.306Z,720
2018-01-20T10:07:40.697Z,692
2018-01-20T10:08:42.076Z,672
2018-01-20T10:09:43.457Z,700
2018-01-20T10:10:44.840Z,708
2018-01-20T10:11:46.229Z,716
2018-01-20T10:12:47.618Z,720
2018-01-20T10:13:49.005Z,720
2018-01-20T10:14:50.390Z,728
2018-01-20T10:15:51.771Z,752
2018-01-20T10:16:53.155Z,788
2018-01-20T10:17:54.537Z,824
2018-01-20T10:18:55.922Z,860
2018-01-20T10:19:57.311Z,900
2018-01-20T10:20:58.696Z,924
2018-01-20T10:22:00.081Z,948
2018-01-20T10:23:01.461Z,952
2018-01-20T10:24:02.860Z,960
2018-01-20T10:25:04.242Z,960
2018-01-20T10:26:05.628Z,988
2018-01-20T10:27:07.014Z,1028
2018-01-20T10:28:08.400Z,1064
2018-01-20T10:29:09.789Z,1112
2018-01-20T10:30:11.170Z,1148
2018-01-20T10:31:12.555Z,1156
2018-01-20T10:32:13.941Z,1156
2018-01-20T10:33:15.361Z,1132
2018-01-20T10:34:16.762Z,1092
2018-01-20T10:35:18.149Z,1048
2018-01-20T10:36:19.532Z,1004
2018-01-20T10:37:20.915Z,984
2018-01-20T10:38:22.299Z,972
2018-01-20T10:39:23.682Z,976
2018-01-20T10:40:25.072Z,972
2018-01-20T10:41:26.454Z,972
2018-01-20T10:42:27.841Z,964
2018-01-20T10:43:29.222Z,964
2018-01-20T10:44:30.608Z,932
2018-01-20T10:45:31.992Z,888
2018-01-20T10:46:33.376Z,856
2018-01-20T10:47:34.765Z,840
2018-01-20T10:48:36.148Z,848
2018-01-20T10:49:37.534Z,856
2018-01-20T10:50:38.920Z,860
2018-01-20T10:51:40.302Z,876
2018-01-20T10:52:41.688Z,884
2018-01-20T10:53:43.072Z,880
2018-01-20T10:54:44.460Z,880
2018-01-20T10:55:45.848Z,900
2018-01-20T10:56:47.232Z,948
2018-01-20T10:57:48.617Z,1012
2018-01-20T10:58:50.003Z,1060
2018-01-20T10:59:51.390Z,1096
2018-01-20T11:00:52.774Z,1100
2018-01-20T11:01:54.160Z,1116
2018-01-20T11:02:55.550Z,1136
2018-01-20T11:03:56.937Z,1152
2018-01-20T11:04:58.322Z,1116
2018-01-20T11:05:59.709Z,1080
2018-01-20T11:07:01.092Z,1016
2018-01-20T11:08:02.477Z,980
2018-01-20T11:09:03.863Z,896
2018-01-20T11:10:05.247Z,892
2018-01-20T11:11:06.633Z,932
2018-01-20T11:12:08.021Z,944
2018-01-20T11:13:09.437Z,912
2018-01-20T11:14:10.824Z,872
2018-01-20T11:15:12.208Z,864
2018-01-20T11:16:13.593Z,884
2018-01-20T11:17:14.978Z,884
2018-01-20T11:18:16.365Z,880
2018-01-20T11:19:17.750Z,908
2018-01-20T11:20:19.133Z,948
2018-01-20T11:21:20.518Z,968
2018-01-20T11:22:21.904Z,1008
2018-01-20T11:23:23.288Z,1016
2018-01-20T11:24:24.753Z,992
2018-01-20T11:25:26.142Z,984
2018-01-20T11:26:27.528Z,960
2018-01-20T11:27:28.914Z,916
2018-01-20T11:28:30.294Z,864
2018-01-20T11:29:31.676Z,808
2018-01-20T11:30:33.064Z,796
2018-01-20T11:31:34.450Z,800
2018-01-20T11:32:35.837Z,812
2018-01-20T11:33:37.221Z,816
2018-01-20T11:34:38.607Z,800
2018-01-20T11:35:39.990Z,800
2018-01-20T11:36:41.374Z,808
2018-01-20T11:37:42.760Z,788
2018-01-20T11:38:44.146Z,808
2018-01-20T11:39:45.534Z,840
2018-01-20T11:40:46.919Z,848
2018-01-20T11:41:48.302Z,848
2018-01-20T11:42:49.685Z,840
2018-01-20T11:43:51.072Z,836
2018-01-20T11:44:52.456Z,812
2018-01-20T11:45:53.843Z,776
2018-01-20T11:46:55.230Z,768
2018-01-20T11:47:56.611Z,784
2018-01-20T11:48:57.993Z,764
2018-01-20T11:49:59.376Z,736
2018-01-20T11:51:00.761Z,716
2018-01-20T11:52:02.157Z,688
2018-01-20T11:53:03.533Z,680
2018-01-20T11:54:04.922Z,700
2018-01-20T11:55:06.305Z,720
2018-01-20T11:56:07.690Z,716
2018-01-20T11:57:09.073Z,688
2018-01-20T11:58:10.458Z,656
2018-01-20T11:59:11.842Z,620
2018-01-20T12:00:13.229Z,604
2018-01-20T12:01:14.616Z,600
2018-01-20T12:02:15.996Z,604
2018-01-20T12:03:17.380Z,608
2018-01-20T12:04:18.766Z,592
2018-01-20T12:05:20.149Z,592
2018-01-20T12:06:21.533Z,576
2018-01-20T12:07:22.918Z,596
2018-01-20T12:08:24.304Z,596
2018-01-20T12:09:25.688Z,588
2018-01-20T12:10:27.070Z,604
2018-01-20T12:11:28.456Z,624
2018-01-20T12:12:29.841Z,632
2018-01-20T12:13:31.226Z,624
2018-01-20T12:14:32.663Z,640
2018-01-20T12:15:34.047Z,664
2018-01-20T12:16:35.433Z,660
2018-01-20T23:38:02.740Z,0
2018-01-20T23:39:04.120Z,0
2018-01-20T23:40:25.609Z,0
2018-01-20T23:41:26.993Z,0
2018-01-20T23:42:48.477Z,0
2018-01-20T23:43:49.856Z,0
2018-01-20T23:45:11.367Z,0
2018-01-20T23:46:12.742Z,0
2018-01-20T23:47:34.229Z,0
2018-01-20T23:48:35.609Z,0
2018-01-20T23:49:58.107Z,0
2018-01-20T23:50:59.488Z,0
2018-01-20T23:52:21.965Z,0
2018-01-20T23:53:23.345Z,0
2018-01-20T23:54:24.725Z,0
2018-01-20T23:55:26.106Z,0
2018-01-20T23:56:27.488Z,0
2018-01-20T23:57:28.867Z,0
2018-01-20T23:58:30.247Z,0
2018-01-20T23:59:31.633Z,0
